Time;durP1;ratioP1;P1;durP2;ratioP2;P2;SDS_P1;SDS_P2;PMS_P1;PMS_P2;Temp;Humidity;BMP_temperature;BMP_pressure;BME280_temperature;BME280_humidity;BME280_pressure;Samples;Min_cycle;Max_cycle;Signal;HPM_P1;HPM_P2
2023/11/20 00:01:05;;;;;;;2.08;0.40;;;12.20;84.10;;;;;;5006885;28;20347;-64
2023/11/20 00:03:31;;;;;;;2.58;0.52;;;12.20;84.10;;;;;;5005785;28;20095;-64
2023/11/20 00:05:56;;;;;;;0.63;0.35;;;12.20;84.10;;;;;;5005443;28;20044;-64
2023/11/20 00:08:23;;;;;;;0.45;0.30;;;12.10;84.10;;;;;;5005755;28;20575;-64
2023/11/20 00:10:49;;;;;;;0.50;0.20;;;12.20;84.10;;;;;;5004184;28;20069;-64
2023/11/20 00:13:15;;;;;;;1.35;0.25;;;12.10;84.00;;;;;;5005423;28;20042;-64
2023/11/20 00:15:40;;;;;;;1.20;0.43;;;12.10;84.00;;;;;;5004800;28;20073;-64
2023/11/20 00:18:06;;;;;;;0.73;0.40;;;12.10;84.10;;;;;;5005567;28;20040;-64
2023/11/20 00:20:31;;;;;;;1.15;0.40;;;12.10;84.20;;;;;;5004937;28;20060;-64
2023/11/20 00:22:57;;;;;;;1.08;0.43;;;12.10;84.20;;;;;;5006241;28;20065;-64
2023/11/20 00:25:23;;;;;;;2.20;0.30;;;12.00;84.30;;;;;;5005842;28;20545;-65
2023/11/20 00:27:48;;;;;;;0.73;0.45;;;11.90;84.50;;;;;;5005564;28;20042;-64
2023/11/20 00:30:14;;;;;;;1.77;0.40;;;11.90;84.60;;;;;;5005106;28;20524;-65
2023/11/20 00:32:40;;;;;;;0.28;0.28;;;11.90;84.80;;;;;;5005147;28;20041;-65
2023/11/20 00:35:06;;;;;;;0.43;0.30;;;11.90;85.00;;;;;;5005433;28;20040;-63
2023/11/20 00:37:31;;;;;;;1.50;0.30;;;11.90;85.20;;;;;;5005213;28;20034;-65
2023/11/20 00:39:57;;;;;;;0.93;0.28;;;11.80;85.30;;;;;;5005897;28;20042;-65
2023/11/20 00:42:22;;;;;;;0.50;0.20;;;11.80;85.30;;;;;;5005589;28;20042;-64
2023/11/20 00:44:48;;;;;;;1.50;0.30;;;11.80;85.50;;;;;;5004946;28;20045;-65
2023/11/20 00:47:13;;;;;;;0.40;0.30;;;11.80;85.60;;;;;;5004764;28;20077;-65
2023/11/20 00:49:39;;;;;;;0.52;0.30;;;11.80;85.70;;;;;;5005498;28;20339;-65
2023/11/20 00:52:05;;;;;;;0.93;0.47;;;11.80;85.90;;;;;;5005822;28;20469;-64
2023/11/20 00:54:30;;;;;;;0.50;0.40;;;11.80;86.00;;;;;;5004492;28;20030;-64
2023/11/20 00:56:56;;;;;;;0.63;0.30;;;11.80;86.20;;;;;;5009486;28;20421;-65
2023/11/20 00:59:22;;;;;;;1.70;0.40;;;11.80;86.20;;;;;;5008691;28;20033;-65
2023/11/20 01:01:48;;;;;;;0.40;0.32;;;11.80;86.40;;;;;;5008901;28;20038;-64
2023/11/20 01:04:13;;;;;;;2.10;0.40;;;11.80;86.50;;;;;;5008157;28;20037;-65
2023/11/20 01:06:42;;;;;;;1.27;0.60;;;11.80;86.60;;;;;;5006781;28;20343;-65
2023/11/20 01:09:08;;;;;;;0.43;0.28;;;11.80;86.70;;;;;;5008394;28;20037;-65
2023/11/20 01:11:34;;;;;;;0.47;0.22;;;11.80;86.90;;;;;;5006470;28;20088;-64
2023/11/20 01:14:01;;;;;;;1.33;0.30;;;11.90;86.90;;;;;;5009106;28;20026;-64
2023/11/20 01:16:27;;;;;;;0.50;0.38;;;11.90;86.90;;;;;;5007982;28;20042;-64
2023/11/20 01:18:53;;;;;;;0.55;0.20;;;11.90;86.90;;;;;;5008589;28;20038;-64
2023/11/20 01:21:19;;;;;;;1.52;0.50;;;11.90;86.80;;;;;;5008282;28;20058;-64
2023/11/20 01:23:45;;;;;;;0.75;0.30;;;12.00;86.80;;;;;;5009132;28;20505;-64
2023/11/20 01:26:12;;;;;;;1.33;0.45;;;12.00;86.70;;;;;;5009048;28;20071;-64
2023/11/20 01:28:38;;;;;;;1.50;0.30;;;12.00;86.60;;;;;;5007879;28;20041;-64
2023/11/20 01:31:04;;;;;;;1.23;0.30;;;12.00;86.60;;;;;;5008680;28;20084;-64
2023/11/20 01:33:29;;;;;;;1.45;0.40;;;12.00;86.40;;;;;;5008134;28;20141;-65
2023/11/20 01:35:55;;;;;;;1.50;0.40;;;12.00;86.40;;;;;;5008956;28;20070;-64
2023/11/20 01:38:20;;;;;;;2.67;0.77;;;12.00;86.30;;;;;;5008128;28;20201;-64
2023/11/20 01:40:53;;;;;;;1.25;0.45;;;12.00;86.30;;;;;;5008335;28;20117;-65
2023/11/20 01:43:18;;;;;;;1.63;0.30;;;12.00;86.20;;;;;;5007893;28;20120;-64
2023/11/20 01:45:44;;;;;;;0.40;0.22;;;12.00;86.20;;;;;;5007456;28;20125;-64
2023/11/20 01:48:10;;;;;;;3.15;0.65;;;12.10;86.30;;;;;;5007867;28;20042;-64
2023/11/20 01:50:36;;;;;;;2.28;0.47;;;12.00;86.20;;;;;;5008045;28;20468;-64
2023/11/20 01:53:03;;;;;;;2.40;0.40;;;12.00;86.20;;;;;;5008586;28;20100;-65
2023/11/20 01:55:29;;;;;;;0.50;0.30;;;12.00;86.20;;;;;;5008056;28;20152;-64
2023/11/20 01:57:55;;;;;;;0.68;0.20;;;12.10;86.40;;;;;;4998637;28;20046;-65
2023/11/20 02:00:22;;;;;;;0.85;0.40;;;12.10;86.40;;;;;;5007461;28;20049;-64
2023/11/20 02:02:49;;;;;;;3.17;0.60;;;12.00;86.40;;;;;;5009748;28;20088;-64
2023/11/20 02:05:15;;;;;;;1.65;0.35;;;12.00;86.40;;;;;;5006776;28;20709;-64
2023/11/20 02:07:41;;;;;;;1.02;0.30;;;12.10;86.40;;;;;;5006475;28;20038;-64
2023/11/20 02:10:07;;;;;;;1.27;0.30;;;12.10;87.30;;;;;;4988634;28;20040;-65
2023/11/20 02:12:35;;;;;;;0.95;0.40;;;12.10;86.40;;;;;;5007113;28;20084;-64
2023/11/20 02:15:00;;;;;;;0.68;0.22;;;12.10;86.30;;;;;;5007499;28;20033;-65
2023/11/20 02:17:26;;;;;;;1.42;0.40;;;12.10;86.30;;;;;;5007459;28;20433;-64
2023/11/20 02:19:52;;;;;;;0.63;0.30;;;12.10;86.20;;;;;;5007874;28;20030;-64
2023/11/20 02:22:18;;;;;;;0.93;0.30;;;12.10;86.20;;;;;;5007637;28;20041;-64
2023/11/20 02:24:47;;;;;;;0.90;0.40;;;12.10;86.20;;;;;;5007263;28;20041;-64
2023/11/20 02:27:48;;;;;;;1.95;0.25;;;12.10;86.10;;;;;;5007392;28;20038;-64
2023/11/20 02:30:14;;;;;;;2.30;0.30;;;12.10;86.00;;;;;;5006872;28;20069;-64
2023/11/20 02:32:39;;;;;;;0.43;0.25;;;12.10;86.00;;;;;;5006430;28;20067;-64
2023/11/20 02:35:05;;;;;;;0.55;0.30;;;12.10;86.00;;;;;;5006843;28;20108;-64
2023/11/20 02:37:31;;;;;;;2.38;0.47;;;12.00;85.90;;;;;;5006746;28;20045;-64
2023/11/20 02:39:57;;;;;;;1.20;0.40;;;12.00;85.90;;;;;;5007287;28;20049;-64
2023/11/20 02:42:23;;;;;;;0.65;0.35;;;12.00;85.80;;;;;;5006555;28;20111;-62
2023/11/20 02:44:50;;;;;;;3.47;0.40;;;12.00;85.80;;;;;;5007080;28;20046;-64
2023/11/20 02:47:15;;;;;;;1.15;0.43;;;12.00;85.70;;;;;;5006455;28;20072;-64
2023/11/20 02:49:41;;;;;;;2.47;0.50;;;12.00;85.50;;;;;;5006966;28;20559;-64
2023/11/20 02:52:07;;;;;;;3.17;0.43;;;12.00;85.50;;;;;;5007500;28;20145;-64
2023/11/20 02:54:33;;;;;;;1.55;0.40;;;12.00;85.20;;;;;;5005855;28;20084;-64
2023/11/20 02:56:59;;;;;;;0.60;0.30;;;12.00;85.20;;;;;;5007553;28;20083;-64
2023/11/20 02:59:27;;;;;;;1.13;0.30;;;12.00;85.90;;;;;;5006328;28;20533;-64
2023/11/20 03:01:54;;;;;;;2.50;0.60;;;12.00;84.90;;;;;;5006625;28;20137;-64
2023/11/20 03:04:20;;;;;;;1.02;0.40;;;12.00;84.80;;;;;;5006242;28;20037;-64
2023/11/20 03:06:46;;;;;;;2.28;0.50;;;12.00;84.70;;;;;;5004840;28;20234;-64
2023/11/20 03:09:12;;;;;;;2.58;0.40;;;12.00;84.60;;;;;;5005728;28;20344;-64
2023/11/20 03:11:38;;;;;;;1.67;0.43;;;12.00;84.50;;;;;;5006165;28;20038;-64
2023/11/20 03:14:04;;;;;;;1.00;0.50;;;12.00;84.30;;;;;;5006295;28;20057;-64
2023/11/20 03:16:33;;;;;;;1.52;0.50;;;12.00;84.10;;;;;;5005782;28;20394;-65
2023/11/20 03:18:59;;;;;;;1.75;0.40;;;12.00;83.90;;;;;;5005458;28;20034;-64
2023/11/20 03:21:28;;;;;;;1.45;0.47;;;12.00;83.70;;;;;;5006028;28;20448;-64
2023/11/20 03:23:54;;;;;;;1.25;0.32;;;12.00;83.80;;;;;;5006518;28;20044;-64
2023/11/20 03:26:23;;;;;;;2.50;0.50;;;12.00;83.60;;;;;;5005947;28;20044;-65
2023/11/20 03:28:49;;;;;;;0.90;0.40;;;12.00;83.30;;;;;;5006172;28;20690;-64
2023/11/20 03:31:15;;;;;;;0.68;0.40;;;12.00;83.40;;;;;;5006565;28;20500;-64
2023/11/20 03:33:42;;;;;;;1.67;0.40;;;12.00;83.30;;;;;;5005826;28;20034;-64
2023/11/20 03:36:08;;;;;;;1.13;0.43;;;12.00;83.10;;;;;;5006692;28;20034;-64
2023/11/20 03:38:34;;;;;;;2.58;0.68;;;12.00;82.90;;;;;;5005456;28;20033;-64
2023/11/20 03:40:59;;;;;;;0.88;0.32;;;12.00;82.90;;;;;;5006213;28;20506;-65
2023/11/20 03:43:27;;;;;;;3.60;0.43;;;12.00;82.80;;;;;;5006518;28;20366;-64
2023/11/20 03:45:52;;;;;;;1.58;0.52;;;12.00;82.80;;;;;;5006404;28;20041;-65
2023/11/20 03:48:18;;;;;;;2.40;0.52;;;12.00;82.50;;;;;;5005770;28;20628;-64
2023/11/20 03:50:44;;;;;;;3.50;0.60;;;12.00;82.30;;;;;;5005528;28;20037;-64
2023/11/20 03:53:10;;;;;;;1.55;0.52;;;12.00;82.40;;;;;;5006091;28;20497;-64
2023/11/20 03:55:36;;;;;;;1.20;0.30;;;12.00;82.40;;;;;;5005558;28;20050;-65
2023/11/20 03:58:03;;;;;;;1.15;0.50;;;12.00;82.20;;;;;;5005859;28;20037;-64
2023/11/20 04:00:32;;;;;;;1.48;0.40;;;12.00;82.20;;;;;;5003934;28;20053;-64
2023/11/20 04:03:00;;;;;;;2.60;0.47;;;12.00;82.20;;;;;;5006530;28;20038;-64
2023/11/20 04:05:26;;;;;;;1.83;0.40;;;12.00;82.00;;;;;;5004809;28;20045;-64
2023/11/20 04:07:52;;;;;;;4.30;0.70;;;12.00;82.20;;;;;;5006001;28;20042;-64
2023/11/20 04:10:17;;;;;;;4.32;0.45;;;12.10;82.10;;;;;;5006474;28;20042;-64
2023/11/20 04:12:46;;;;;;;1.17;0.55;;;12.10;82.10;;;;;;5005611;28;20046;-64
2023/11/20 04:15:12;;;;;;;3.90;0.60;;;12.10;82.00;;;;;;5006456;28;20113;-64
2023/11/20 04:17:38;;;;;;;2.65;0.38;;;12.00;82.10;;;;;;5005811;28;20153;-64
2023/11/20 04:20:05;;;;;;;0.77;0.40;;;12.10;82.00;;;;;;5006394;28;20045;-64
2023/11/20 04:22:31;;;;;;;3.88;0.60;;;12.10;82.00;;;;;;5005601;28;20029;-64
2023/11/20 04:24:57;;;;;;;2.50;0.52;;;12.10;82.00;;;;;;5006407;28;20474;-64
2023/11/20 04:27:23;;;;;;;2.70;0.85;;;12.10;82.00;;;;;;5005921;28;20062;-64
2023/11/20 04:29:49;;;;;;;1.73;0.50;;;12.10;82.00;;;;;;5004913;28;20123;-64
2023/11/20 04:32:14;;;;;;;3.00;0.77;;;12.10;82.00;;;;;;5005259;28;20083;-64
2023/11/20 04:34:40;;;;;;;2.80;0.60;;;12.10;82.00;;;;;;5004837;28;20026;-64
2023/11/20 04:37:05;;;;;;;2.67;0.70;;;12.10;82.00;;;;;;5006479;28;20478;-64
2023/11/20 04:39:31;;;;;;;2.42;0.52;;;12.00;82.00;;;;;;4988023;28;20030;-64
2023/11/20 04:41:58;;;;;;;3.15;0.80;;;12.10;82.00;;;;;;5006463;28;20030;-64
2023/11/20 04:44:24;;;;;;;2.00;0.70;;;12.10;82.00;;;;;;4987944;28;20074;-63
2023/11/20 04:46:49;;;;;;;3.30;0.70;;;12.10;82.00;;;;;;5005683;28;20528;-64
2023/11/20 04:49:15;;;;;;;3.53;0.70;;;12.10;82.10;;;;;;5005660;28;20411;-64
2023/11/20 04:51:41;;;;;;;5.47;0.70;;;12.10;82.10;;;;;;5005742;28;20030;-65
2023/11/20 04:54:06;;;;;;;2.47;0.70;;;12.10;82.20;;;;;;5006187;28;20030;-64
2023/11/20 04:56:32;;;;;;;2.30;0.50;;;12.00;82.20;;;;;;5005196;28;20283;-64
2023/11/20 04:58:58;;;;;;;3.00;0.73;;;12.10;82.20;;;;;;4988106;28;20023;-64
2023/11/20 05:01:23;;;;;;;4.05;0.70;;;12.10;82.30;;;;;;5005599;28;20030;-64
2023/11/20 05:03:49;;;;;;;4.68;0.90;;;12.00;82.30;;;;;;5005402;28;20176;-64
2023/11/20 05:06:15;;;;;;;2.20;0.77;;;12.10;82.40;;;;;;5004416;28;20394;-64
2023/11/20 05:08:40;;;;;;;3.83;0.80;;;12.00;82.20;;;;;;4987698;28;20035;-63
2023/11/20 05:11:06;;;;;;;2.78;0.60;;;12.00;82.90;;;;;;5004211;28;20052;-64
2023/11/20 05:13:32;;;;;;;3.08;0.60;;;12.00;81.90;;;;;;5003860;28;20034;-64
2023/11/20 05:15:57;;;;;;;2.92;0.77;;;12.00;81.80;;;;;;4987619;28;20045;-64
2023/11/20 05:18:23;;;;;;;2.88;0.50;;;12.00;81.60;;;;;;5004110;28;20038;-64
2023/11/20 05:20:48;;;;;;;1.80;0.52;;;12.00;81.30;;;;;;4988740;28;20038;-64
2023/11/20 05:23:14;;;;;;;2.55;0.60;;;12.00;81.20;;;;;;5004346;28;20034;-64
2023/11/20 05:25:40;;;;;;;1.95;0.52;;;12.00;81.00;;;;;;5004424;28;20042;-64
2023/11/20 05:28:05;;;;;;;2.90;0.77;;;12.00;81.00;;;;;;5003934;28;20045;-64
2023/11/20 05:30:31;;;;;;;2.63;0.50;;;12.00;80.60;;;;;;5004154;28;20033;-64
2023/11/20 05:32:56;;;;;;;4.10;0.50;;;12.00;80.20;;;;;;5005275;28;20069;-64
2023/11/20 05:35:22;;;;;;;2.65;0.70;;;12.00;80.00;;;;;;5005204;28;20091;-63
2023/11/20 05:37:48;;;;;;;2.78;0.70;;;12.00;79.90;;;;;;5004869;28;20509;-64
2023/11/20 05:40:14;;;;;;;2.00;0.60;;;12.00;79.40;;;;;;5005654;28;20103;-64
2023/11/20 05:42:40;;;;;;;2.90;0.80;;;12.00;79.50;;;;;;5008043;28;20087;-64
2023/11/20 05:45:07;;;;;;;6.07;0.57;;;12.00;79.30;;;;;;4991086;28;20048;-64
2023/11/20 05:47:32;;;;;;;3.13;0.68;;;12.00;79.10;;;;;;5008323;28;20503;-64
2023/11/20 05:49:58;;;;;;;3.15;0.60;;;12.00;78.80;;;;;;5009135;28;20073;-64
2023/11/20 05:52:25;;;;;;;1.55;0.45;;;12.00;78.90;;;;;;5008275;28;20069;-64
2023/11/20 05:54:51;;;;;;;1.63;0.60;;;12.00;78.70;;;;;;5008770;28;20099;-64
2023/11/20 05:57:17;;;;;;;2.28;0.50;;;12.00;78.20;;;;;;5008812;28;20536;-64
2023/11/20 05:59:45;;;;;;;3.72;0.65;;;12.00;78.40;;;;;;5008639;28;20038;-64
2023/11/20 06:02:11;;;;;;;2.92;0.40;;;12.00;77.90;;;;;;5008412;28;20092;-64
2023/11/20 06:04:37;;;;;;;4.18;0.60;;;11.90;77.80;;;;;;5008115;28;20390;-64
2023/11/20 06:07:03;;;;;;;4.55;0.90;;;12.00;78.00;;;;;;5007367;28;20030;-64
2023/11/20 06:09:29;;;;;;;2.63;0.68;;;11.90;77.90;;;;;;5008072;28;20614;-64
2023/11/20 06:11:54;;;;;;;2.97;0.47;;;11.90;77.70;;;;;;5007964;28;20030;-64
2023/11/20 06:14:20;;;;;;;3.72;0.60;;;11.90;77.70;;;;;;5008246;28;20033;-64
2023/11/20 06:16:48;;;;;;;2.83;0.55;;;11.90;77.70;;;;;;5007788;28;20453;-64
2023/11/20 06:19:14;;;;;;;2.85;0.60;;;11.90;77.40;;;;;;5007883;28;20084;-64
2023/11/20 06:21:47;;;;;;;1.70;0.45;;;11.90;77.50;;;;;;5008426;28;20467;-64
2023/11/20 06:24:14;;;;;;;3.10;0.52;;;11.90;77.30;;;;;;5007925;28;20030;-64
2023/11/20 06:26:41;;;;;;;1.77;0.50;;;11.90;77.70;;;;;;5007254;28;20033;-65
2023/11/20 06:29:07;;;;;;;5.28;0.60;;;11.90;77.90;;;;;;5007354;28;20075;-64
2023/11/20 06:31:32;;;;;;;2.65;0.70;;;11.90;77.80;;;;;;5008009;28;20448;-64
2023/11/20 06:33:58;;;;;;;3.25;0.80;;;11.90;77.70;;;;;;5008030;28;20034;-64
2023/11/20 06:36:23;;;;;;;6.15;0.65;;;11.90;77.70;;;;;;5007832;28;20034;-64
2023/11/20 06:38:49;;;;;;;3.72;0.80;;;11.90;77.60;;;;;;5007438;28;20030;-64
2023/11/20 06:41:18;;;;;;;7.32;1.02;;;11.80;77.60;;;;;;5007966;28;20366;-64
2023/11/20 06:43:43;;;;;;;3.50;1.00;;;11.80;77.60;;;;;;5007395;28;20045;-64
2023/11/20 06:46:19;;;;;;;4.50;0.90;;;11.90;77.80;;;;;;5007931;28;20046;-64
2023/11/20 06:48:45;;;;;;;2.90;0.70;;;11.90;77.50;;;;;;5007138;28;20038;-64
2023/11/20 06:51:12;;;;;;;3.75;0.70;;;11.80;77.90;;;;;;5007299;28;20348;-64
2023/11/20 06:53:38;;;;;;;3.80;0.63;;;11.80;77.70;;;;;;5006810;28;20615;-65
2023/11/20 06:56:04;;;;;;;3.15;0.55;;;11.80;77.80;;;;;;5007553;28;20508;-64
2023/11/20 06:58:34;;;;;;;3.75;0.70;;;11.80;77.90;;;;;;5006487;28;20045;-64
2023/11/20 07:01:02;;;;;;;2.83;0.68;;;11.80;77.70;;;;;;5007559;28;20029;-64
2023/11/20 07:03:28;;;;;;;5.10;0.47;;;11.80;77.90;;;;;;5007443;28;20037;-64
2023/11/20 07:05:53;;;;;;;4.00;0.68;;;11.80;77.90;;;;;;5006155;28;20049;-64
2023/11/20 07:08:22;;;;;;;2.80;0.70;;;11.80;77.90;;;;;;5006878;28;20129;-64
2023/11/20 07:10:48;;;;;;;4.30;0.57;;;11.80;77.90;;;;;;5004592;28;20069;-64
2023/11/20 07:13:14;;;;;;;1.33;0.60;;;11.80;77.90;;;;;;5006907;28;20026;-64
2023/11/20 07:15:39;;;;;;;2.17;0.82;;;11.80;77.80;;;;;;5007280;28;20497;-64
2023/11/20 07:18:08;;;;;;;2.58;0.70;;;11.80;77.80;;;;;;5007021;28;20041;-64
2023/11/20 07:20:34;;;;;;;2.25;0.50;;;11.70;77.90;;;;;;5006459;28;20034;-64
2023/11/20 07:23:01;;;;;;;3.67;0.90;;;11.70;78.00;;;;;;4989218;28;20038;-64
2023/11/20 07:25:33;;;;;;;5.32;0.63;;;11.70;78.20;;;;;;5006363;28;20034;-64
2023/11/20 07:28:00;;;;;;;5.57;0.82;;;11.70;78.20;;;;;;5007159;28;20034;-64
2023/11/20 07:30:26;;;;;;;2.47;0.73;;;11.70;79.10;;;;;;5005951;28;20452;-64
2023/11/20 07:32:52;;;;;;;4.10;0.80;;;11.70;78.30;;;;;;5007534;28;20053;-64
2023/11/20 07:35:18;;;;;;;3.00;0.80;;;11.70;78.20;;;;;;5006751;28;20065;-64
2023/11/20 07:37:43;;;;;;;3.38;0.70;;;11.70;78.20;;;;;;5006951;28;20413;-62
2023/11/20 07:40:11;;;;;;;2.70;0.73;;;11.70;78.60;;;;;;5007020;28;20192;-64
2023/11/20 07:42:37;;;;;;;2.03;0.82;;;11.70;78.50;;;;;;5006080;28;20560;-64
2023/11/20 07:45:04;;;;;;;3.72;0.80;;;11.70;78.40;;;;;;5006490;28;20483;-64
2023/11/20 07:47:29;;;;;;;2.05;0.73;;;11.70;78.50;;;;;;5006260;28;20034;-65
2023/11/20 07:49:55;;;;;;;3.88;0.80;;;11.70;78.50;;;;;;5006796;28;20459;-64
2023/11/20 07:52:21;;;;;;;4.25;0.85;;;11.80;78.40;;;;;;5006402;28;20035;-64
2023/11/20 07:54:47;;;;;;;3.88;1.02;;;11.70;78.40;;;;;;5006292;28;20057;-64
2023/11/20 07:57:15;;;;;;;3.70;0.80;;;11.70;78.40;;;;;;5006162;28;20054;-64
2023/11/20 07:59:41;;;;;;;4.10;0.70;;;11.70;78.40;;;;;;5005780;28;20046;-64
2023/11/20 08:02:08;;;;;;;7.13;0.80;;;11.80;78.40;;;;;;5006311;28;20041;-64
2023/11/20 08:04:34;;;;;;;7.07;0.85;;;11.80;78.50;;;;;;5004657;28;20089;-64
2023/11/20 08:07:00;;;;;;;5.72;1.13;;;11.80;78.40;;;;;;4988012;28;20109;-64
2023/11/20 08:09:26;;;;;;;3.60;0.90;;;11.80;78.20;;;;;;5006071;28;20117;-64
2023/11/20 08:11:51;;;;;;;3.70;0.90;;;11.80;78.50;;;;;;5004039;28;20037;-64
2023/11/20 08:14:18;;;;;;;3.58;1.35;;;11.80;78.50;;;;;;5006434;28;20030;-64
2023/11/20 08:16:44;;;;;;;6.15;0.70;;;11.80;78.60;;;;;;5005511;28;20552;-64
2023/11/20 08:19:10;;;;;;;3.95;1.00;;;11.80;78.50;;;;;;5006095;28;20120;-64
2023/11/20 08:21:35;;;;;;;4.22;1.02;;;11.80;78.60;;;;;;5006293;28;20048;-64
2023/11/20 08:24:01;;;;;;;4.97;1.00;;;11.80;78.10;;;;;;4988597;28;20509;-64
2023/11/20 08:26:27;;;;;;;2.67;0.75;;;11.90;78.10;;;;;;5005096;28;20271;-64
2023/11/20 08:28:52;;;;;;;2.63;0.82;;;11.90;78.10;;;;;;5006267;28;20022;-64
2023/11/20 08:31:19;;;;;;;6.68;1.10;;;11.90;78.20;;;;;;5006538;28;20053;-64
2023/11/20 08:33:44;;;;;;;6.05;1.00;;;11.90;77.90;;;;;;5005546;28;20355;-64
2023/11/20 08:36:10;;;;;;;3.95;1.02;;;11.90;78.00;;;;;;5006320;28;20247;-64
2023/11/20 08:38:36;;;;;;;5.30;0.90;;;11.90;78.10;;;;;;5005162;28;20037;-65
2023/11/20 08:41:02;;;;;;;7.05;0.90;;;12.00;78.00;;;;;;5006428;28;20029;-64
2023/11/20 08:43:27;;;;;;;2.95;0.82;;;12.00;78.10;;;;;;5006013;28;20548;-64
2023/11/20 08:45:54;;;;;;;6.82;0.70;;;12.00;78.00;;;;;;5006421;28;20026;-64
2023/11/20 08:48:19;;;;;;;3.83;0.80;;;12.00;78.00;;;;;;5005674;28;20038;-64
2023/11/20 08:50:45;;;;;;;3.50;0.88;;;12.00;78.00;;;;;;4987214;28;20033;-64
2023/11/20 08:53:11;;;;;;;5.05;1.48;;;12.10;78.10;;;;;;5007066;28;20022;-64
2023/11/20 08:55:37;;;;;;;6.28;1.10;;;12.10;77.90;;;;;;5005299;28;20026;-64
2023/11/20 08:58:08;;;;;;;3.65;0.95;;;12.10;78.00;;;;;;5005688;28;20326;-64
2023/11/20 09:00:34;;;;;;;8.93;0.90;;;12.10;77.90;;;;;;5004675;28;20037;-64
2023/11/20 09:03:00;;;;;;;16.60;1.70;;;12.20;78.10;;;;;;5004525;28;20076;-64
2023/11/20 09:05:25;;;;;;;3.92;1.25;;;12.20;77.90;;;;;;5006619;28;20081;-64
2023/11/20 09:07:51;;;;;;;3.80;1.58;;;12.20;78.10;;;;;;5005328;28;20037;-63
2023/11/20 09:10:16;;;;;;;4.05;1.23;;;12.20;77.80;;;;;;5006163;28;20263;-64
2023/11/20 09:12:42;;;;;;;5.60;1.05;;;12.30;77.80;;;;;;5005773;28;20050;-64
2023/11/20 09:15:10;;;;;;;4.30;0.80;;;12.30;77.70;;;;;;5007360;28;20030;-64
2023/11/20 09:17:37;;;;;;;9.73;1.00;;;12.30;77.60;;;;;;5010180;28;20038;-64
2023/11/20 09:20:04;;;;;;;7.80;0.90;;;12.30;77.70;;;;;;5010572;28;20125;-64
2023/11/20 09:22:29;;;;;;;3.35;0.80;;;12.30;77.60;;;;;;5010018;28;20042;-64
2023/11/20 09:24:56;;;;;;;3.28;1.00;;;12.40;77.50;;;;;;5010759;28;20093;-64
2023/11/20 09:27:22;;;;;;;3.70;0.90;;;12.40;77.30;;;;;;5010296;28;20057;-64
2023/11/20 09:29:48;;;;;;;3.53;1.00;;;12.40;77.20;;;;;;5010797;28;20065;-63
2023/11/20 09:32:14;;;;;;;5.45;1.30;;;12.40;76.90;;;;;;5010693;28;20112;-64
2023/11/20 09:34:39;;;;;;;6.47;1.27;;;12.40;76.70;;;;;;5009591;28;20255;-64
2023/11/20 09:37:05;;;;;;;5.18;0.85;;;12.40;76.60;;;;;;5010276;28;20030;-64
2023/11/20 09:39:30;;;;;;;4.15;1.00;;;12.50;76.70;;;;;;5010450;28;20042;-64
2023/11/20 09:41:56;;;;;;;4.22;1.08;;;12.50;76.70;;;;;;5010311;28;20058;-64
2023/11/20 09:44:35;;;;;;;4.20;0.70;;;12.50;76.10;;;;;;5010487;28;20486;-64
2023/11/20 09:47:01;;;;;;;4.57;1.00;;;12.60;76.00;;;;;;5009830;28;20038;-64
2023/11/20 09:49:30;;;;;;;6.07;1.20;;;12.60;76.50;;;;;;5010032;28;20481;-64
2023/11/20 09:51:58;;;;;;;5.32;1.20;;;12.70;76.30;;;;;;5010347;28;20056;-63
2023/11/20 09:54:24;;;;;;;6.90;1.02;;;12.60;76.00;;;;;;5009799;28;20061;-64
2023/11/20 09:56:53;;;;;;;3.88;0.93;;;12.70;75.70;;;;;;5010226;28;20058;-65
2023/11/20 09:59:20;;;;;;;6.30;1.05;;;12.70;75.60;;;;;;5008790;28;20030;-64
2023/11/20 10:01:48;;;;;;;3.63;0.90;;;12.80;76.00;;;;;;5009667;28;20523;-64
2023/11/20 10:04:18;;;;;;;5.78;1.00;;;12.80;75.70;;;;;;5009922;28;20034;-65
2023/11/20 10:06:44;;;;;;;5.10;1.00;;;12.90;75.60;;;;;;5008263;28;20030;-64
2023/11/20 10:09:12;;;;;;;3.38;0.93;;;12.90;74.80;;;;;;5009590;28;20661;-64
2023/11/20 10:11:40;;;;;;;3.60;0.73;;;12.90;75.00;;;;;;4990507;28;20375;-64
2023/11/20 10:14:06;;;;;;;5.18;0.88;;;12.90;74.80;;;;;;5009847;28;20031;-64
2023/11/20 10:16:35;;;;;;;2.90;1.00;;;13.00;74.80;;;;;;5008968;28;20038;-64
2023/11/20 10:19:01;;;;;;;4.55;0.90;;;13.00;74.70;;;;;;5009445;28;20030;-64
2023/11/20 10:21:29;;;;;;;5.93;1.20;;;13.00;74.50;;;;;;5009862;28;20087;-64
2023/11/20 10:23:55;;;;;;;6.72;1.00;;;13.00;74.40;;;;;;5009959;28;20049;-64
2023/11/20 10:26:24;;;;;;;2.97;0.90;;;13.00;74.20;;;;;;5009395;28;20076;-64
2023/11/20 10:28:50;;;;;;;3.22;1.00;;;13.00;73.70;;;;;;4981079;28;20027;-64
2023/11/20 10:31:16;;;;;;;2.72;1.00;;;13.00;73.50;;;;;;4972118;28;20572;-64
2023/11/20 10:33:43;;;;;;;5.38;1.05;;;13.00;73.00;;;;;;5000422;28;20503;-64
2023/11/20 10:36:12;;;;;;;3.70;1.00;;;13.00;73.90;;;;;;5009838;28;20034;-64
2023/11/20 10:38:38;;;;;;;5.15;1.20;;;13.00;72.60;;;;;;5008037;28;20054;-64
2023/11/20 10:41:08;;;;;;;5.00;1.00;;;13.00;73.00;;;;;;5009633;28;20050;-64
2023/11/20 10:43:36;;;;;;;3.97;0.98;;;12.90;73.20;;;;;;5008898;28;20053;-64
2023/11/20 10:46:03;;;;;;;6.80;1.75;;;12.90;73.00;;;;;;5009456;28;20030;-64
2023/11/20 10:48:36;;;;;;;6.25;2.00;;;12.90;72.60;;;;;;5007787;28;20066;-63
2023/11/20 10:51:13;;;;;;;5.47;1.60;;;12.90;72.10;;;;;;5009396;28;20326;-65
2023/11/20 10:53:42;;;;;;;4.03;1.25;;;12.90;71.90;;;;;;5008662;28;20493;-64
2023/11/20 10:56:10;;;;;;;5.68;1.73;;;12.90;72.00;;;;;;5009049;28;20425;-63
2023/11/20 10:58:38;;;;;;;6.95;1.55;;;12.80;72.10;;;;;;5007156;28;20519;-64
2023/11/20 11:01:05;;;;;;;4.25;1.23;;;12.80;72.40;;;;;;5009102;28;20639;-64
2023/11/20 11:03:32;;;;;;;5.85;1.25;;;12.80;72.80;;;;;;5008295;28;20644;-64
2023/11/20 11:06:03;;;;;;;4.75;1.00;;;12.80;72.90;;;;;;5007457;28;20045;-64
2023/11/20 11:08:32;;;;;;;6.45;1.10;;;12.80;72.60;;;;;;5007169;28;20088;-65
2023/11/20 11:10:59;;;;;;;4.75;1.08;;;12.80;73.10;;;;;;5007329;28;20054;-64
2023/11/20 11:13:29;;;;;;;4.15;0.80;;;12.80;73.30;;;;;;5007922;28;20033;-64
2023/11/20 11:15:57;;;;;;;4.63;1.00;;;12.90;73.30;;;;;;5008885;28;20041;-64
2023/11/20 11:18:29;;;;;;;3.40;0.90;;;12.90;73.50;;;;;;5008197;28;20034;-64
2023/11/20 11:20:57;;;;;;;3.63;0.98;;;12.90;73.10;;;;;;5008229;28;20037;-64
2023/11/20 11:23:49;;;;;;;7.05;1.10;;;12.90;73.00;;;;;;5008199;28;20044;-65
2023/11/20 11:26:55;;;;;;;4.57;0.93;;;13.00;72.20;;;;;;5008441;28;20030;-64
2023/11/20 11:29:30;;;;;;;3.90;1.10;;;13.00;71.40;;;;;;4928130;29;20394;-64
2023/11/20 11:32:15;;;;;;;6.65;1.40;;;13.00;72.10;;;;;;4928602;29;20350;-64
2023/11/20 11:35:00;;;;;;;5.38;1.20;;;13.00;71.10;;;;;;4979881;28;20125;-64
2023/11/20 11:38:00;;;;;;;5.30;1.23;;;13.00;71.10;;;;;;5007686;28;20556;-64
2023/11/20 11:40:51;;;;;;;4.57;1.10;;;13.00;70.40;;;;;;4965303;28;20333;-64
2023/11/20 11:43:27;;;;;;;4.85;1.20;;;13.00;70.40;;;;;;5008120;28;20041;-64
2023/11/20 11:45:56;;;;;;;4.47;1.15;;;13.00;71.50;;;;;;4990787;28;20528;-64
2023/11/20 11:48:24;;;;;;;7.22;1.35;;;13.00;71.80;;;;;;5007458;28;20066;-64
2023/11/20 11:50:50;;;;;;;4.53;0.98;;;13.00;71.60;;;;;;5007517;28;20045;-64
2023/11/20 11:53:15;;;;;;;4.40;0.90;;;13.00;72.00;;;;;;5008146;28;20022;-64
2023/11/20 11:55:44;;;;;;;2.95;0.90;;;13.10;71.70;;;;;;5008089;28;20145;-64
2023/11/20 11:58:15;;;;;;;4.05;1.25;;;13.00;71.70;;;;;;5007309;28;20049;-64
2023/11/20 12:00:41;;;;;;;3.80;0.98;;;13.10;71.40;;;;;;5007154;28;20113;-64
2023/11/20 12:03:11;;;;;;;11.50;1.50;;;13.10;72.00;;;;;;5007960;28;20432;-64
2023/11/20 12:06:13;;;;;;;4.05;1.02;;;13.10;72.00;;;;;;5007899;28;20069;-64
2023/11/20 12:08:39;;;;;;;6.03;1.50;;;13.10;71.60;;;;;;4949816;28;20038;-65
2023/11/20 12:11:05;;;;;;;15.57;1.85;;;13.10;72.10;;;;;;4987264;28;20030;-64
2023/11/20 12:13:31;;;;;;;4.80;1.25;;;13.10;72.10;;;;;;4992242;28;20397;-64
2023/11/20 12:16:08;;;;;;;7.13;1.13;;;13.10;71.80;;;;;;5004146;28;20050;-65
2023/11/20 12:18:37;;;;;;;4.07;0.80;;;13.10;71.50;;;;;;5006893;28;20061;-64
2023/11/20 12:21:10;;;;;;;5.47;1.30;;;13.10;71.70;;;;;;5007638;28;20038;-64
2023/11/20 12:23:36;;;;;;;3.97;1.13;;;13.10;71.30;;;;;;5007201;28;20037;-64
2023/11/20 12:26:05;;;;;;;6.32;1.20;;;13.10;71.70;;;;;;5006048;28;20117;-64
2023/11/20 12:28:35;;;;;;;7.10;1.73;;;13.10;72.50;;;;;;5006554;28;20490;-64
2023/11/20 12:31:06;;;;;;;4.82;1.40;;;13.00;71.40;;;;;;5007527;28;20075;-64
2023/11/20 12:33:38;;;;;;;3.53;1.30;;;13.00;71.60;;;;;;5007047;28;20026;-64
2023/11/20 12:36:05;;;;;;;5.88;1.80;;;13.00;71.80;;;;;;5007109;28;20069;-64
2023/11/20 12:38:32;;;;;;;7.65;1.63;;;13.00;71.30;;;;;;5006656;28;20089;-64
2023/11/20 12:41:03;;;;;;;4.07;1.27;;;13.00;70.20;;;;;;5007337;28;20229;-64
2023/11/20 12:43:31;;;;;;;3.90;1.27;;;13.00;70.40;;;;;;5007405;28;20045;-64
2023/11/20 12:45:57;;;;;;;4.75;1.15;;;13.00;70.30;;;;;;4990277;28;20525;-64